sensor_id;sensor_type;location;lat;lon;timestamp;P1;durP1;ratioP1;P2;durP2;ratioP2
75234;SDS011;63817;51.228;-1.472;2022-12-13T00:01:40;72.03;;;30.35;;
75234;SDS011;63817;51.228;-1.472;2022-12-13T00:04:06;75.82;;;30.85;;
75234;SDS011;63817;51.228;-1.472;2022-12-13T00:06:32;71.78;;;32.60;;
75234;SDS011;63817;51.228;-1.472;2022-12-13T00:08:58;69.30;;;28.67;;
75234;SDS011;63817;51.228;-1.472;2022-12-13T00:11:25;66.25;;;28.15;;
75234;SDS011;63817;51.228;-1.472;2022-12-13T00:13:50;75.90;;;31.40;;
75234;SDS011;63817;51.228;-1.472;2022-12-13T00:16:17;79.10;;;31.52;;
75234;SDS011;63817;51.228;-1.472;2022-12-13T00:18:46;70.20;;;31.00;;
75234;SDS011;63817;51.228;-1.472;2022-12-13T00:21:13;76.53;;;31.63;;
75234;SDS011;63817;51.228;-1.472;2022-12-13T00:23:40;73.25;;;32.33;;
75234;SDS011;63817;51.228;-1.472;2022-12-13T00:26:07;73.25;;;31.48;;
75234;SDS011;63817;51.228;-1.472;2022-12-13T00:28:35;80.93;;;32.58;;
75234;SDS011;63817;51.228;-1.472;2022-12-13T00:31:01;71.43;;;33.15;;
75234;SDS011;63817;51.228;-1.472;2022-12-13T00:33:27;71.38;;;33.17;;
75234;SDS011;63817;51.228;-1.472;2022-12-13T00:35:53;73.88;;;31.52;;
75234;SDS011;63817;51.228;-1.472;2022-12-13T00:38:19;78.18;;;33.53;;
75234;SDS011;63817;51.228;-1.472;2022-12-13T00:40:44;75.20;;;33.60;;
75234;SDS011;63817;51.228;-1.472;2022-12-13T00:43:10;80.90;;;33.72;;
75234;SDS011;63817;51.228;-1.472;2022-12-13T00:45:35;76.20;;;32.03;;
75234;SDS011;63817;51.228;-1.472;2022-12-13T00:48:02;70.22;;;31.40;;
75234;SDS011;63817;51.228;-1.472;2022-12-13T00:50:28;79.00;;;31.70;;
75234;SDS011;63817;51.228;-1.472;2022-12-13T00:52:53;69.07;;;30.95;;
75234;SDS011;63817;51.228;-1.472;2022-12-13T00:55:19;72.57;;;29.33;;
75234;SDS011;63817;51.228;-1.472;2022-12-13T00:57:44;77.45;;;30.42;;
75234;SDS011;63817;51.228;-1.472;2022-12-13T01:00:10;68.20;;;29.63;;
75234;SDS011;63817;51.228;-1.472;2022-12-13T01:02:36;74.10;;;32.20;;
75234;SDS011;63817;51.228;-1.472;2022-12-13T01:05:01;67.28;;;30.67;;
75234;SDS011;63817;51.228;-1.472;2022-12-13T01:07:27;72.80;;;31.38;;
75234;SDS011;63817;51.228;-1.472;2022-12-13T01:09:52;80.57;;;31.40;;
75234;SDS011;63817;51.228;-1.472;2022-12-13T01:12:18;69.47;;;30.85;;
75234;SDS011;63817;51.228;-1.472;2022-12-13T01:14:43;68.68;;;29.17;;
75234;SDS011;63817;51.228;-1.472;2022-12-13T01:17:08;65.05;;;30.50;;
75234;SDS011;63817;51.228;-1.472;2022-12-13T01:19:34;74.60;;;30.88;;
75234;SDS011;63817;51.228;-1.472;2022-12-13T01:22:00;64.70;;;29.35;;
75234;SDS011;63817;51.228;-1.472;2022-12-13T01:24:27;69.00;;;31.77;;
75234;SDS011;63817;51.228;-1.472;2022-12-13T01:26:53;77.25;;;31.60;;
75234;SDS011;63817;51.228;-1.472;2022-12-13T01:29:19;67.97;;;29.75;;
75234;SDS011;63817;51.228;-1.472;2022-12-13T01:31:45;77.57;;;31.25;;
75234;SDS011;63817;51.228;-1.472;2022-12-13T01:34:12;67.70;;;30.58;;
75234;SDS011;63817;51.228;-1.472;2022-12-13T01:36:42;63.28;;;27.52;;
75234;SDS011;63817;51.228;-1.472;2022-12-13T01:39:10;71.30;;;29.40;;
75234;SDS011;63817;51.228;-1.472;2022-12-13T01:41:36;70.32;;;28.60;;
75234;SDS011;63817;51.228;-1.472;2022-12-13T01:44:03;68.70;;;28.27;;
75234;SDS011;63817;51.228;-1.472;2022-12-13T01:46:51;66.80;;;27.10;;
75234;SDS011;63817;51.228;-1.472;2022-12-13T01:49:17;66.55;;;29.48;;
75234;SDS011;63817;51.228;-1.472;2022-12-13T01:51:44;66.22;;;28.52;;
75234;SDS011;63817;51.228;-1.472;2022-12-13T01:54:13;67.57;;;29.02;;
75234;SDS011;63817;51.228;-1.472;2022-12-13T01:56:42;72.45;;;27.77;;
75234;SDS011;63817;51.228;-1.472;2022-12-13T01:59:10;66.80;;;27.98;;
75234;SDS011;63817;51.228;-1.472;2022-12-13T02:01:37;67.20;;;28.48;;
75234;SDS011;63817;51.228;-1.472;2022-12-13T02:04:02;62.33;;;25.45;;
75234;SDS011;63817;51.228;-1.472;2022-12-13T02:09:02;70.03;;;29.08;;
75234;SDS011;63817;51.228;-1.472;2022-12-13T02:11:28;56.53;;;26.13;;
75234;SDS011;63817;51.228;-1.472;2022-12-13T02:13:54;63.35;;;27.73;;
75234;SDS011;63817;51.228;-1.472;2022-12-13T02:16:24;58.75;;;25.75;;
75234;SDS011;63817;51.228;-1.472;2022-12-13T02:27:51;59.72;;;25.45;;
75234;SDS011;63817;51.228;-1.472;2022-12-13T02:30:39;56.83;;;24.98;;
75234;SDS011;63817;51.228;-1.472;2022-12-13T02:33:20;63.08;;;27.90;;
75234;SDS011;63817;51.228;-1.472;2022-12-13T02:41:48;72.93;;;28.90;;
75234;SDS011;63817;51.228;-1.472;2022-12-13T02:44:19;63.28;;;25.95;;
75234;SDS011;63817;51.228;-1.472;2022-12-13T02:47:11;57.25;;;26.08;;
75234;SDS011;63817;51.228;-1.472;2022-12-13T02:49:37;65.70;;;28.60;;
75234;SDS011;63817;51.228;-1.472;2022-12-13T02:52:06;59.88;;;25.73;;
75234;SDS011;63817;51.228;-1.472;2022-12-13T02:54:32;60.80;;;27.17;;
75234;SDS011;63817;51.228;-1.472;2022-12-13T02:56:58;58.03;;;25.65;;
75234;SDS011;63817;51.228;-1.472;2022-12-13T02:59:25;65.13;;;27.75;;
75234;SDS011;63817;51.228;-1.472;2022-12-13T03:02:03;64.40;;;28.80;;
75234;SDS011;63817;51.228;-1.472;2022-12-13T03:11:10;63.88;;;28.60;;
75234;SDS011;63817;51.228;-1.472;2022-12-13T03:13:54;62.65;;;26.98;;
75234;SDS011;63817;51.228;-1.472;2022-12-13T03:18:53;57.88;;;26.13;;
75234;SDS011;63817;51.228;-1.472;2022-12-13T03:21:22;63.15;;;27.55;;
75234;SDS011;63817;51.228;-1.472;2022-12-13T03:23:47;58.20;;;26.73;;
75234;SDS011;63817;51.228;-1.472;2022-12-13T03:26:14;63.22;;;27.98;;
75234;SDS011;63817;51.228;-1.472;2022-12-13T03:28:41;62.22;;;26.92;;
75234;SDS011;63817;51.228;-1.472;2022-12-13T03:31:07;69.28;;;28.05;;
75234;SDS011;63817;51.228;-1.472;2022-12-13T03:33:32;60.35;;;26.30;;
75234;SDS011;63817;51.228;-1.472;2022-12-13T03:35:58;62.60;;;28.70;;
75234;SDS011;63817;51.228;-1.472;2022-12-13T03:38:24;63.30;;;27.67;;
75234;SDS011;63817;51.228;-1.472;2022-12-13T03:40:51;65.72;;;28.13;;
75234;SDS011;63817;51.228;-1.472;2022-12-13T03:43:17;64.18;;;28.42;;
75234;SDS011;63817;51.228;-1.472;2022-12-13T03:45:43;67.47;;;28.33;;
75234;SDS011;63817;51.228;-1.472;2022-12-13T03:48:08;78.10;;;29.33;;
75234;SDS011;63817;51.228;-1.472;2022-12-13T03:50:34;68.63;;;28.60;;
75234;SDS011;63817;51.228;-1.472;2022-12-13T03:53:00;70.88;;;28.77;;
75234;SDS011;63817;51.228;-1.472;2022-12-13T03:55:26;61.63;;;26.92;;
75234;SDS011;63817;51.228;-1.472;2022-12-13T03:57:52;67.90;;;29.13;;
75234;SDS011;63817;51.228;-1.472;2022-12-13T04:00:17;64.22;;;28.80;;
75234;SDS011;63817;51.228;-1.472;2022-12-13T04:02:43;71.43;;;28.42;;
75234;SDS011;63817;51.228;-1.472;2022-12-13T04:05:08;63.28;;;28.60;;
75234;SDS011;63817;51.228;-1.472;2022-12-13T04:07:33;64.03;;;27.25;;
75234;SDS011;63817;51.228;-1.472;2022-12-13T04:09:59;72.68;;;27.98;;
75234;SDS011;63817;51.228;-1.472;2022-12-13T04:12:24;66.28;;;28.65;;
75234;SDS011;63817;51.228;-1.472;2022-12-13T04:15:08;66.38;;;28.30;;
75234;SDS011;63817;51.228;-1.472;2022-12-13T04:17:34;62.75;;;28.23;;
75234;SDS011;63817;51.228;-1.472;2022-12-13T04:19:59;65.53;;;27.63;;
75234;SDS011;63817;51.228;-1.472;2022-12-13T04:22:25;68.63;;;29.77;;
75234;SDS011;63817;51.228;-1.472;2022-12-13T04:24:50;64.95;;;29.67;;
75234;SDS011;63817;51.228;-1.472;2022-12-13T04:27:15;66.65;;;28.98;;
75234;SDS011;63817;51.228;-1.472;2022-12-13T04:29:41;59.47;;;25.83;;
75234;SDS011;63817;51.228;-1.472;2022-12-13T04:32:06;64.57;;;28.13;;
75234;SDS011;63817;51.228;-1.472;2022-12-13T04:34:32;65.80;;;27.73;;
75234;SDS011;63817;51.228;-1.472;2022-12-13T04:37:16;67.05;;;27.80;;
75234;SDS011;63817;51.228;-1.472;2022-12-13T04:39:41;62.47;;;28.60;;
75234;SDS011;63817;51.228;-1.472;2022-12-13T04:42:06;64.30;;;28.30;;
75234;SDS011;63817;51.228;-1.472;2022-12-13T04:44:32;64.32;;;26.17;;
75234;SDS011;63817;51.228;-1.472;2022-12-13T04:46:58;66.05;;;29.20;;
75234;SDS011;63817;51.228;-1.472;2022-12-13T04:49:23;64.40;;;27.80;;
75234;SDS011;63817;51.228;-1.472;2022-12-13T04:51:49;62.35;;;27.95;;
75234;SDS011;63817;51.228;-1.472;2022-12-13T04:54:14;65.90;;;29.63;;
75234;SDS011;63817;51.228;-1.472;2022-12-13T04:56:39;78.47;;;29.33;;
75234;SDS011;63817;51.228;-1.472;2022-12-13T04:59:05;65.72;;;27.42;;
75234;SDS011;63817;51.228;-1.472;2022-12-13T05:01:30;61.42;;;27.17;;
75234;SDS011;63817;51.228;-1.472;2022-12-13T05:03:55;70.15;;;29.45;;
75234;SDS011;63817;51.228;-1.472;2022-12-13T05:06:21;63.95;;;27.67;;
75234;SDS011;63817;51.228;-1.472;2022-12-13T05:08:46;65.70;;;28.00;;
75234;SDS011;63817;51.228;-1.472;2022-12-13T05:11:12;69.65;;;29.67;;
75234;SDS011;63817;51.228;-1.472;2022-12-13T05:13:37;69.65;;;28.77;;
75234;SDS011;63817;51.228;-1.472;2022-12-13T05:16:04;65.20;;;28.92;;
75234;SDS011;63817;51.228;-1.472;2022-12-13T05:18:31;69.15;;;29.35;;
75234;SDS011;63817;51.228;-1.472;2022-12-13T05:21:00;64.53;;;27.45;;
75234;SDS011;63817;51.228;-1.472;2022-12-13T05:23:29;67.68;;;28.83;;
75234;SDS011;63817;51.228;-1.472;2022-12-13T05:25:55;62.60;;;27.15;;
75234;SDS011;63817;51.228;-1.472;2022-12-13T05:28:21;66.43;;;28.25;;
75234;SDS011;63817;51.228;-1.472;2022-12-13T05:30:49;64.20;;;28.08;;
75234;SDS011;63817;51.228;-1.472;2022-12-13T05:33:15;62.25;;;27.15;;
75234;SDS011;63817;51.228;-1.472;2022-12-13T05:35:41;66.60;;;28.17;;
75234;SDS011;63817;51.228;-1.472;2022-12-13T05:38:06;68.10;;;28.38;;
75234;SDS011;63817;51.228;-1.472;2022-12-13T05:40:31;67.60;;;29.73;;
75234;SDS011;63817;51.228;-1.472;2022-12-13T05:42:57;62.50;;;27.38;;
75234;SDS011;63817;51.228;-1.472;2022-12-13T05:45:22;70.97;;;27.95;;
75234;SDS011;63817;51.228;-1.472;2022-12-13T05:47:48;68.90;;;28.38;;
75234;SDS011;63817;51.228;-1.472;2022-12-13T05:50:14;70.20;;;30.08;;
75234;SDS011;63817;51.228;-1.472;2022-12-13T05:52:41;62.35;;;27.10;;
75234;SDS011;63817;51.228;-1.472;2022-12-13T05:55:06;71.07;;;28.88;;
75234;SDS011;63817;51.228;-1.472;2022-12-13T05:57:32;70.97;;;28.45;;
75234;SDS011;63817;51.228;-1.472;2022-12-13T05:59:58;68.82;;;26.63;;
75234;SDS011;63817;51.228;-1.472;2022-12-13T06:02:23;62.17;;;27.17;;
75234;SDS011;63817;51.228;-1.472;2022-12-13T06:04:49;67.97;;;27.77;;
75234;SDS011;63817;51.228;-1.472;2022-12-13T06:07:14;61.85;;;27.60;;
75234;SDS011;63817;51.228;-1.472;2022-12-13T06:09:39;64.82;;;28.35;;
75234;SDS011;63817;51.228;-1.472;2022-12-13T06:12:05;55.88;;;25.48;;
75234;SDS011;63817;51.228;-1.472;2022-12-13T06:14:31;64.05;;;26.85;;
75234;SDS011;63817;51.228;-1.472;2022-12-13T06:16:56;62.33;;;26.20;;
75234;SDS011;63817;51.228;-1.472;2022-12-13T06:19:22;61.03;;;26.50;;
75234;SDS011;63817;51.228;-1.472;2022-12-13T06:21:51;58.17;;;24.83;;
75234;SDS011;63817;51.228;-1.472;2022-12-13T06:24:17;61.25;;;25.73;;
75234;SDS011;63817;51.228;-1.472;2022-12-13T06:26:44;54.63;;;25.23;;
75234;SDS011;63817;51.228;-1.472;2022-12-13T06:29:10;53.45;;;24.33;;
75234;SDS011;63817;51.228;-1.472;2022-12-13T06:31:36;57.22;;;25.05;;
75234;SDS011;63817;51.228;-1.472;2022-12-13T06:34:02;55.95;;;25.15;;
75234;SDS011;63817;51.228;-1.472;2022-12-13T06:36:28;59.00;;;25.20;;
75234;SDS011;63817;51.228;-1.472;2022-12-13T06:38:53;58.53;;;24.85;;
75234;SDS011;63817;51.228;-1.472;2022-12-13T06:41:19;62.70;;;26.70;;
75234;SDS011;63817;51.228;-1.472;2022-12-13T06:43:45;63.75;;;25.75;;
75234;SDS011;63817;51.228;-1.472;2022-12-13T06:46:11;60.20;;;27.20;;
75234;SDS011;63817;51.228;-1.472;2022-12-13T06:48:36;53.75;;;23.65;;
75234;SDS011;63817;51.228;-1.472;2022-12-13T06:51:04;55.60;;;24.48;;
75234;SDS011;63817;51.228;-1.472;2022-12-13T06:53:30;56.17;;;25.48;;
75234;SDS011;63817;51.228;-1.472;2022-12-13T06:55:56;57.08;;;23.45;;
75234;SDS011;63817;51.228;-1.472;2022-12-13T06:58:26;55.17;;;24.33;;
75234;SDS011;63817;51.228;-1.472;2022-12-13T07:00:59;53.78;;;23.48;;
75234;SDS011;63817;51.228;-1.472;2022-12-13T07:03:35;56.97;;;23.10;;
75234;SDS011;63817;51.228;-1.472;2022-12-13T07:06:05;48.88;;;22.80;;
75234;SDS011;63817;51.228;-1.472;2022-12-13T07:08:32;56.22;;;23.25;;
75234;SDS011;63817;51.228;-1.472;2022-12-13T07:10:57;49.05;;;22.30;;
75234;SDS011;63817;51.228;-1.472;2022-12-13T07:13:23;54.60;;;25.00;;
75234;SDS011;63817;51.228;-1.472;2022-12-13T07:15:49;53.78;;;24.17;;
75234;SDS011;63817;51.228;-1.472;2022-12-13T07:18:14;56.63;;;24.77;;
75234;SDS011;63817;51.228;-1.472;2022-12-13T07:20:40;56.20;;;21.67;;
75234;SDS011;63817;51.228;-1.472;2022-12-13T07:23:06;51.55;;;22.63;;
75234;SDS011;63817;51.228;-1.472;2022-12-13T07:25:32;45.90;;;22.02;;
75234;SDS011;63817;51.228;-1.472;2022-12-13T07:28:01;79.68;;;23.40;;
75234;SDS011;63817;51.228;-1.472;2022-12-13T07:30:32;44.67;;;19.67;;
75234;SDS011;63817;51.228;-1.472;2022-12-13T07:32:59;53.97;;;22.27;;
75234;SDS011;63817;51.228;-1.472;2022-12-13T07:35:26;45.38;;;20.40;;
75234;SDS011;63817;51.228;-1.472;2022-12-13T07:37:51;46.35;;;21.17;;
75234;SDS011;63817;51.228;-1.472;2022-12-13T07:40:17;48.17;;;22.02;;
75234;SDS011;63817;51.228;-1.472;2022-12-13T07:42:48;53.88;;;22.08;;
75234;SDS011;63817;51.228;-1.472;2022-12-13T07:45:14;62.80;;;23.65;;
75234;SDS011;63817;51.228;-1.472;2022-12-13T07:47:39;55.22;;;24.10;;
75234;SDS011;63817;51.228;-1.472;2022-12-13T07:50:05;54.65;;;23.05;;
75234;SDS011;63817;51.228;-1.472;2022-12-13T07:52:30;51.05;;;22.45;;
75234;SDS011;63817;51.228;-1.472;2022-12-13T07:54:56;57.90;;;24.95;;
75234;SDS011;63817;51.228;-1.472;2022-12-13T07:57:21;58.40;;;24.75;;
75234;SDS011;63817;51.228;-1.472;2022-12-13T07:59:46;58.92;;;24.27;;
75234;SDS011;63817;51.228;-1.472;2022-12-13T08:02:12;76.22;;;22.80;;
75234;SDS011;63817;51.228;-1.472;2022-12-13T08:04:37;56.40;;;24.90;;
75234;SDS011;63817;51.228;-1.472;2022-12-13T08:07:06;55.13;;;23.30;;
75234;SDS011;63817;51.228;-1.472;2022-12-13T08:09:32;58.20;;;25.25;;
75234;SDS011;63817;51.228;-1.472;2022-12-13T08:11:59;67.25;;;24.92;;
75234;SDS011;63817;51.228;-1.472;2022-12-13T08:14:24;58.42;;;23.77;;
75234;SDS011;63817;51.228;-1.472;2022-12-13T08:16:50;58.70;;;24.50;;
75234;SDS011;63817;51.228;-1.472;2022-12-13T08:19:15;58.42;;;24.63;;
75234;SDS011;63817;51.228;-1.472;2022-12-13T08:21:41;51.00;;;23.27;;
75234;SDS011;63817;51.228;-1.472;2022-12-13T08:24:06;56.58;;;23.67;;
75234;SDS011;63817;51.228;-1.472;2022-12-13T08:26:32;49.22;;;21.40;;
75234;SDS011;63817;51.228;-1.472;2022-12-13T08:28:57;56.80;;;24.83;;
75234;SDS011;63817;51.228;-1.472;2022-12-13T08:31:23;57.78;;;23.70;;
75234;SDS011;63817;51.228;-1.472;2022-12-13T08:33:49;56.85;;;23.52;;
75234;SDS011;63817;51.228;-1.472;2022-12-13T08:36:15;52.25;;;22.63;;
75234;SDS011;63817;51.228;-1.472;2022-12-13T08:38:42;48.88;;;21.88;;
75234;SDS011;63817;51.228;-1.472;2022-12-13T08:41:08;50.28;;;23.02;;
75234;SDS011;63817;51.228;-1.472;2022-12-13T08:43:34;55.58;;;23.70;;
75234;SDS011;63817;51.228;-1.472;2022-12-13T08:46:00;53.80;;;24.90;;
75234;SDS011;63817;51.228;-1.472;2022-12-13T08:48:26;58.55;;;23.60;;
75234;SDS011;63817;51.228;-1.472;2022-12-13T08:50:52;52.60;;;23.70;;
75234;SDS011;63817;51.228;-1.472;2022-12-13T08:53:17;52.15;;;23.70;;
75234;SDS011;63817;51.228;-1.472;2022-12-13T08:55:43;47.95;;;22.10;;
75234;SDS011;63817;51.228;-1.472;2022-12-13T08:58:08;49.13;;;21.73;;
75234;SDS011;63817;51.228;-1.472;2022-12-13T09:00:34;56.35;;;24.35;;
75234;SDS011;63817;51.228;-1.472;2022-12-13T09:03:00;49.80;;;22.63;;
75234;SDS011;63817;51.228;-1.472;2022-12-13T09:05:29;49.45;;;23.83;;
75234;SDS011;63817;51.228;-1.472;2022-12-13T09:07:56;51.08;;;22.73;;
75234;SDS011;63817;51.228;-1.472;2022-12-13T09:10:22;51.30;;;23.15;;
75234;SDS011;63817;51.228;-1.472;2022-12-13T09:12:47;55.20;;;23.13;;
75234;SDS011;63817;51.228;-1.472;2022-12-13T09:15:13;48.05;;;21.73;;
75234;SDS011;63817;51.228;-1.472;2022-12-13T09:17:38;46.83;;;21.75;;
75234;SDS011;63817;51.228;-1.472;2022-12-13T09:20:07;47.33;;;21.60;;
75234;SDS011;63817;51.228;-1.472;2022-12-13T09:22:34;53.20;;;23.70;;
75234;SDS011;63817;51.228;-1.472;2022-12-13T09:25:01;51.70;;;22.92;;
75234;SDS011;63817;51.228;-1.472;2022-12-13T09:27:27;42.60;;;20.05;;
75234;SDS011;63817;51.228;-1.472;2022-12-13T09:29:53;48.55;;;21.60;;
75234;SDS011;63817;51.228;-1.472;2022-12-13T09:32:18;52.83;;;21.40;;
75234;SDS011;63817;51.228;-1.472;2022-12-13T09:34:43;50.35;;;21.38;;
75234;SDS011;63817;51.228;-1.472;2022-12-13T09:37:09;47.72;;;19.73;;
75234;SDS011;63817;51.228;-1.472;2022-12-13T09:39:37;42.55;;;19.67;;
75234;SDS011;63817;51.228;-1.472;2022-12-13T09:42:03;50.35;;;20.88;;
75234;SDS011;63817;51.228;-1.472;2022-12-13T09:44:29;47.97;;;20.55;;
75234;SDS011;63817;51.228;-1.472;2022-12-13T09:46:57;39.67;;;19.25;;
75234;SDS011;63817;51.228;-1.472;2022-12-13T09:51:55;43.63;;;19.25;;
75234;SDS011;63817;51.228;-1.472;2022-12-13T09:54:22;43.53;;;18.13;;
75234;SDS011;63817;51.228;-1.472;2022-12-13T09:56:49;45.55;;;19.13;;
75234;SDS011;63817;51.228;-1.472;2022-12-13T09:59:18;38.95;;;18.42;;
75234;SDS011;63817;51.228;-1.472;2022-12-13T10:01:48;45.40;;;18.73;;
75234;SDS011;63817;51.228;-1.472;2022-12-13T10:04:14;40.42;;;18.15;;
75234;SDS011;63817;51.228;-1.472;2022-12-13T10:06:39;40.80;;;17.70;;
75234;SDS011;63817;51.228;-1.472;2022-12-13T10:09:05;39.17;;;17.85;;
75234;SDS011;63817;51.228;-1.472;2022-12-13T10:11:33;44.78;;;18.60;;
75234;SDS011;63817;51.228;-1.472;2022-12-13T10:14:09;38.55;;;17.15;;
75234;SDS011;63817;51.228;-1.472;2022-12-13T10:16:40;37.03;;;16.73;;
75234;SDS011;63817;51.228;-1.472;2022-12-13T10:19:26;39.25;;;18.17;;
75234;SDS011;63817;51.228;-1.472;2022-12-13T10:21:57;35.35;;;17.08;;
75234;SDS011;63817;51.228;-1.472;2022-12-13T10:24:25;33.63;;;15.77;;
75234;SDS011;63817;51.228;-1.472;2022-12-13T10:27:09;39.85;;;16.92;;
75234;SDS011;63817;51.228;-1.472;2022-12-13T10:32:32;38.13;;;18.58;;
75234;SDS011;63817;51.228;-1.472;2022-12-13T10:35:10;31.42;;;16.42;;
75234;SDS011;63817;51.228;-1.472;2022-12-13T10:37:40;41.13;;;18.17;;
75234;SDS011;63817;51.228;-1.472;2022-12-13T10:40:21;41.58;;;17.75;;
75234;SDS011;63817;51.228;-1.472;2022-12-13T10:43:04;41.25;;;17.42;;
75234;SDS011;63817;51.228;-1.472;2022-12-13T10:45:40;35.53;;;17.65;;
75234;SDS011;63817;51.228;-1.472;2022-12-13T10:48:17;35.53;;;16.33;;
75234;SDS011;63817;51.228;-1.472;2022-12-13T10:50:44;36.78;;;17.90;;
75234;SDS011;63817;51.228;-1.472;2022-12-13T10:53:21;33.38;;;17.88;;
75234;SDS011;63817;51.228;-1.472;2022-12-13T10:55:46;33.80;;;16.75;;
75234;SDS011;63817;51.228;-1.472;2022-12-13T10:58:18;36.83;;;17.88;;
75234;SDS011;63817;51.228;-1.472;2022-12-13T11:00:45;36.58;;;15.73;;
75234;SDS011;63817;51.228;-1.472;2022-12-13T11:06:09;34.20;;;15.88;;
75234;SDS011;63817;51.228;-1.472;2022-12-13T11:08:37;35.50;;;17.30;;
75234;SDS011;63817;51.228;-1.472;2022-12-13T11:11:03;31.75;;;15.82;;
75234;SDS011;63817;51.228;-1.472;2022-12-13T11:13:50;36.45;;;17.42;;
75234;SDS011;63817;51.228;-1.472;2022-12-13T11:16:32;36.47;;;17.95;;
75234;SDS011;63817;51.228;-1.472;2022-12-13T11:19:01;36.08;;;17.58;;
75234;SDS011;63817;51.228;-1.472;2022-12-13T11:21:29;38.92;;;18.20;;
75234;SDS011;63817;51.228;-1.472;2022-12-13T11:23:57;34.83;;;17.13;;
75234;SDS011;63817;51.228;-1.472;2022-12-13T11:26:25;38.22;;;18.13;;
75234;SDS011;63817;51.228;-1.472;2022-12-13T11:29:15;36.60;;;17.88;;
75234;SDS011;63817;51.228;-1.472;2022-12-13T11:34:34;37.00;;;17.88;;
75234;SDS011;63817;51.228;-1.472;2022-12-13T11:37:22;35.00;;;18.00;;
75234;SDS011;63817;51.228;-1.472;2022-12-13T11:39:56;43.08;;;19.25;;
75234;SDS011;63817;51.228;-1.472;2022-12-13T11:50:15;39.22;;;19.40;;
75234;SDS011;63817;51.228;-1.472;2022-12-13T11:52:48;36.97;;;18.33;;
75234;SDS011;63817;51.228;-1.472;2022-12-13T11:55:36;37.85;;;18.02;;
75234;SDS011;63817;51.228;-1.472;2022-12-13T11:58:26;40.95;;;19.83;;
75234;SDS011;63817;51.228;-1.472;2022-12-13T12:00:56;37.63;;;18.60;;
75234;SDS011;63817;51.228;-1.472;2022-12-13T12:06:24;37.13;;;18.60;;
75234;SDS011;63817;51.228;-1.472;2022-12-13T12:09:03;44.53;;;19.40;;
75234;SDS011;63817;51.228;-1.472;2022-12-13T12:16:54;41.20;;;19.98;;
75234;SDS011;63817;51.228;-1.472;2022-12-13T12:19:24;38.38;;;20.23;;
75234;SDS011;63817;51.228;-1.472;2022-12-13T12:59:57;42.63;;;19.75;;
75234;SDS011;63817;51.228;-1.472;2022-12-13T13:08:14;40.90;;;19.85;;
75234;SDS011;63817;51.228;-1.472;2022-12-13T13:10:56;41.35;;;19.50;;
75234;SDS011;63817;51.228;-1.472;2022-12-13T13:18:54;42.35;;;19.77;;
75234;SDS011;63817;51.228;-1.472;2022-12-13T13:26:33;44.65;;;19.85;;
75234;SDS011;63817;51.228;-1.472;2022-12-13T13:32:02;37.45;;;18.65;;
75234;SDS011;63817;51.228;-1.472;2022-12-13T13:34:40;38.88;;;19.55;;
75234;SDS011;63817;51.228;-1.472;2022-12-13T13:45:23;38.45;;;18.13;;
75234;SDS011;63817;51.228;-1.472;2022-12-13T13:47:51;40.70;;;18.73;;
75234;SDS011;63817;51.228;-1.472;2022-12-13T13:58:08;40.35;;;20.70;;
75234;SDS011;63817;51.228;-1.472;2022-12-13T14:07:11;41.07;;;20.70;;
75234;SDS011;63817;51.228;-1.472;2022-12-13T14:12:41;44.10;;;19.38;;
75234;SDS011;63817;51.228;-1.472;2022-12-13T14:29:43;40.25;;;20.50;;
75234;SDS011;63817;51.228;-1.472;2022-12-13T14:35:01;39.25;;;19.55;;
75234;SDS011;63817;51.228;-1.472;2022-12-13T14:37:34;42.40;;;20.38;;
75234;SDS011;63817;51.228;-1.472;2022-12-13T14:40:11;42.13;;;19.33;;
75234;SDS011;63817;51.228;-1.472;2022-12-13T14:42:50;37.40;;;18.90;;
75234;SDS011;63817;51.228;-1.472;2022-12-13T14:45:23;45.22;;;20.15;;
75234;SDS011;63817;51.228;-1.472;2022-12-13T14:47:55;40.85;;;19.92;;
75234;SDS011;63817;51.228;-1.472;2022-12-13T14:50:23;48.10;;;20.13;;
75234;SDS011;63817;51.228;-1.472;2022-12-13T14:52:49;44.40;;;20.70;;
75234;SDS011;63817;51.228;-1.472;2022-12-13T14:55:22;39.05;;;19.17;;
75234;SDS011;63817;51.228;-1.472;2022-12-13T14:57:57;37.33;;;18.98;;
75234;SDS011;63817;51.228;-1.472;2022-12-13T15:00:31;36.28;;;18.85;;
75234;SDS011;63817;51.228;-1.472;2022-12-13T15:03:00;38.88;;;18.48;;
75234;SDS011;63817;51.228;-1.472;2022-12-13T15:05:31;40.55;;;19.35;;
75234;SDS011;63817;51.228;-1.472;2022-12-13T15:07:56;39.28;;;19.15;;
75234;SDS011;63817;51.228;-1.472;2022-12-13T15:12:56;48.85;;;20.35;;
75234;SDS011;63817;51.228;-1.472;2022-12-13T15:15:37;42.75;;;21.15;;
75234;SDS011;63817;51.228;-1.472;2022-12-13T15:18:03;40.45;;;19.20;;
75234;SDS011;63817;51.228;-1.472;2022-12-13T15:20:31;41.50;;;19.83;;
75234;SDS011;63817;51.228;-1.472;2022-12-13T15:23:01;43.58;;;20.23;;
75234;SDS011;63817;51.228;-1.472;2022-12-13T15:25:31;40.03;;;19.85;;
75234;SDS011;63817;51.228;-1.472;2022-12-13T15:27:57;42.53;;;21.17;;
75234;SDS011;63817;51.228;-1.472;2022-12-13T15:30:23;43.17;;;21.35;;
75234;SDS011;63817;51.228;-1.472;2022-12-13T15:33:01;43.72;;;20.08;;
75234;SDS011;63817;51.228;-1.472;2022-12-13T15:35:32;46.60;;;21.50;;
75234;SDS011;63817;51.228;-1.472;2022-12-13T15:38:00;39.92;;;20.25;;
75234;SDS011;63817;51.228;-1.472;2022-12-13T15:40:26;50.47;;;22.40;;
75234;SDS011;63817;51.228;-1.472;2022-12-13T15:42:51;47.22;;;21.33;;
75234;SDS011;63817;51.228;-1.472;2022-12-13T15:45:22;43.97;;;20.60;;
75234;SDS011;63817;51.228;-1.472;2022-12-13T15:47:49;43.38;;;21.83;;
75234;SDS011;63817;51.228;-1.472;2022-12-13T15:53:16;48.00;;;22.38;;
75234;SDS011;63817;51.228;-1.472;2022-12-13T15:55:46;46.17;;;22.17;;
75234;SDS011;63817;51.228;-1.472;2022-12-13T15:58:51;51.55;;;23.33;;
75234;SDS011;63817;51.228;-1.472;2022-12-13T16:01:03;49.33;;;22.55;;
75234;SDS011;63817;51.228;-1.472;2022-12-13T16:03:39;43.50;;;20.77;;
75234;SDS011;63817;51.228;-1.472;2022-12-13T16:06:07;49.47;;;22.48;;
75234;SDS011;63817;51.228;-1.472;2022-12-13T16:08:34;48.33;;;22.75;;
75234;SDS011;63817;51.228;-1.472;2022-12-13T16:11:03;42.53;;;22.63;;
75234;SDS011;63817;51.228;-1.472;2022-12-13T16:13:30;46.67;;;21.80;;
75234;SDS011;63817;51.228;-1.472;2022-12-13T16:16:00;48.83;;;21.95;;
75234;SDS011;63817;51.228;-1.472;2022-12-13T16:18:53;43.42;;;22.23;;
75234;SDS011;63817;51.228;-1.472;2022-12-13T16:21:20;43.40;;;21.88;;
75234;SDS011;63817;51.228;-1.472;2022-12-13T16:23:46;48.05;;;21.52;;
75234;SDS011;63817;51.228;-1.472;2022-12-13T16:26:12;49.17;;;22.15;;
75234;SDS011;63817;51.228;-1.472;2022-12-13T16:28:38;45.63;;;23.75;;
75234;SDS011;63817;51.228;-1.472;2022-12-13T16:31:20;42.00;;;21.08;;
75234;SDS011;63817;51.228;-1.472;2022-12-13T16:33:47;38.47;;;20.50;;
75234;SDS011;63817;51.228;-1.472;2022-12-13T16:36:12;42.22;;;20.38;;
75234;SDS011;63817;51.228;-1.472;2022-12-13T16:38:38;41.63;;;20.50;;
75234;SDS011;63817;51.228;-1.472;2022-12-13T16:41:03;44.03;;;20.48;;
75234;SDS011;63817;51.228;-1.472;2022-12-13T16:43:30;37.95;;;19.60;;
75234;SDS011;63817;51.228;-1.472;2022-12-13T16:45:57;40.90;;;19.95;;
75234;SDS011;63817;51.228;-1.472;2022-12-13T16:48:23;36.28;;;18.00;;
75234;SDS011;63817;51.228;-1.472;2022-12-13T16:50:49;36.30;;;18.85;;
75234;SDS011;63817;51.228;-1.472;2022-12-13T16:53:15;40.42;;;20.35;;
75234;SDS011;63817;51.228;-1.472;2022-12-13T16:55:42;39.60;;;20.33;;